Time;durP1;ratioP1;P1;durP2;ratioP2;P2;SDS_P1;SDS_P2;PMS_P1;PMS_P2;Temp;Humidity;BMP_temperature;BMP_pressure;BME280_temperature;BME280_humidity;BME280_pressure;Samples;Min_cycle;Max_cycle;Signal;HPM_P1;HPM_P2
2022/12/18 00:01:22;;;;;;;21.17;12.50;;;;;;;;;;5006449;28;20325;-76
2022/12/18 00:03:48;;;;;;;22.93;14.23;;;;;;;;;;5006954;28;20194;-76
2022/12/18 00:06:14;;;;;;;23.77;14.70;;;;;;;;;;5009377;28;20198;-76
2022/12/18 00:08:39;;;;;;;26.37;15.53;;;;;;;;;;5006982;28;20176;-76
2022/12/18 00:11:06;;;;;;;21.43;12.73;;;;;;;;;;5007623;28;20247;-76
2022/12/18 00:13:31;;;;;;;25.53;13.87;;;;;;;;;;5008078;28;20411;-76
2022/12/18 00:16:01;;;;;;;19.93;12.60;;;;;;;;;;5005079;28;20182;-76
2022/12/18 00:18:26;;;;;;;21.30;12.50;;;;;;;;;;5008537;28;20226;-76
2022/12/18 00:20:51;;;;;;;20.13;13.00;;;;;;;;;;5008021;28;20179;-76
2022/12/18 00:23:16;;;;;;;19.43;11.90;;;;;;;;;;5011218;28;20224;-76
2022/12/18 00:25:42;;;;;;;20.20;12.53;;;;;;;;;;5024002;28;20182;-76
2022/12/18 00:28:07;;;;;;;16.50;11.40;;;;;;;;;;5026556;28;20207;-76
2022/12/18 00:30:32;;;;;;;21.97;12.43;;;;;;;;;;5009948;28;20230;-76
2022/12/18 00:32:57;;;;;;;20.47;12.70;;;;;;;;;;5004226;28;20187;-76
2022/12/18 00:35:23;;;;;;;20.00;12.47;;;;;;;;;;5043687;28;20237;-76
2022/12/18 00:37:48;;;;;;;17.43;12.33;;;;;;;;;;5036294;28;20190;-76
2022/12/18 00:40:13;;;;;;;23.70;13.50;;;;;;;;;;5045200;28;20189;-76
2022/12/18 00:42:56;;;;;;;20.80;12.63;;;;;;;;;;5045815;28;20214;-76
2022/12/18 00:45:22;;;;;;;18.53;12.20;;;;;;;;;;5049172;28;20182;-76
2022/12/18 00:47:48;;;;;;;19.00;11.17;;;;;;;;;;5047135;28;20196;-76
2022/12/18 00:50:13;;;;;;;20.10;12.37;;;;;;;;;;5050348;28;20174;-76
2022/12/18 00:52:38;;;;;;;21.43;12.03;;;;;;;;;;5049598;28;20182;-76
2022/12/18 00:55:03;;;;;;;22.80;12.07;;;;;;;;;;5050876;28;20468;-76
2022/12/18 00:57:29;;;;;;;18.80;11.73;;;;;;;;;;5052273;28;20188;-76
2022/12/18 00:59:54;;;;;;;19.77;11.43;;;;;;;;;;5048455;28;20182;-76
2022/12/18 01:02:19;;;;;;;20.17;12.17;;;;;;;;;;5043313;28;20201;-76
2022/12/18 01:04:44;;;;;;;18.77;11.77;;;;;;;;;;5043981;28;20266;-76
2022/12/18 01:07:09;;;;;;;19.27;11.23;;;;;;;;;;5050137;28;20216;-76
2022/12/18 01:09:34;;;;;;;24.27;13.10;;;;;;;;;;5051865;28;20256;-75
2022/12/18 01:12:00;;;;;;;20.60;11.67;;;;;;;;;;5045061;28;20186;-76
2022/12/18 01:14:25;;;;;;;20.97;12.83;;;;;;;;;;5045714;28;20252;-76
2022/12/18 01:16:50;;;;;;;19.57;12.17;;;;;;;;;;5048866;28;20190;-76
2022/12/18 01:19:15;;;;;;;17.93;10.97;;;;;;;;;;5048541;28;20178;-76
2022/12/18 01:21:40;;;;;;;18.67;12.03;;;;;;;;;;5050341;28;20241;-76
2022/12/18 01:24:06;;;;;;;18.33;11.87;;;;;;;;;;5042751;28;20174;-76
2022/12/18 01:26:31;;;;;;;22.57;12.53;;;;;;;;;;5046366;28;20178;-76
2022/12/18 01:28:57;;;;;;;17.83;11.43;;;;;;;;;;5047314;28;20182;-76
2022/12/18 01:31:24;;;;;;;20.83;11.63;;;;;;;;;;5051911;28;20182;-76
2022/12/18 01:33:50;;;;;;;20.10;11.87;;;;;;;;;;5046449;28;20218;-76
2022/12/18 01:36:18;;;;;;;19.57;12.37;;;;;;;;;;5045827;28;20283;-76
2022/12/18 01:38:44;;;;;;;19.63;12.03;;;;;;;;;;5050349;28;20189;-76
2022/12/18 01:41:09;;;;;;;20.00;11.93;;;;;;;;;;5042965;28;20178;-76
2022/12/18 01:43:42;;;;;;;18.40;11.00;;;;;;;;;;5047810;28;20273;-76
2022/12/18 01:46:08;;;;;;;18.70;10.43;;;;;;;;;;5053097;28;20183;-76
2022/12/18 01:48:33;;;;;;;16.47;10.57;;;;;;;;;;5043913;28;20186;-76
2022/12/18 01:50:59;;;;;;;21.70;11.50;;;;;;;;;;5046788;28;20175;-76
2022/12/18 01:53:25;;;;;;;18.63;11.33;;;;;;;;;;5052273;28;20178;-76
2022/12/18 01:55:51;;;;;;;19.70;11.93;;;;;;;;;;5048624;28;20232;-76
2022/12/18 01:58:17;;;;;;;18.03;11.40;;;;;;;;;;5047780;28;20174;-76
2022/12/18 02:00:42;;;;;;;17.43;10.20;;;;;;;;;;5052504;28;20183;-76
2022/12/18 02:03:07;;;;;;;20.10;12.13;;;;;;;;;;5049169;28;20216;-76
2022/12/18 02:05:43;;;;;;;19.97;11.73;;;;;;;;;;5048360;28;20248;-76
2022/12/18 02:08:16;;;;;;;20.33;10.60;;;;;;;;;;5041658;28;20201;-76
2022/12/18 02:11:05;;;;;;;18.00;10.70;;;;;;;;;;5048411;28;20204;-76
2022/12/18 02:13:36;;;;;;;15.77;10.00;;;;;;;;;;5037381;28;20348;-76
2022/12/18 02:16:07;;;;;;;15.47;10.17;;;;;;;;;;5048236;28;20185;-76
2022/12/18 02:18:35;;;;;;;19.33;11.10;;;;;;;;;;5047626;28;20414;-76
2022/12/18 02:21:19;;;;;;;20.67;11.73;;;;;;;;;;5049072;28;20248;-76
2022/12/18 02:23:50;;;;;;;19.87;11.50;;;;;;;;;;5046979;28;20174;-76
2022/12/18 02:26:18;;;;;;;15.10;9.57;;;;;;;;;;5035720;28;20178;-76
2022/12/18 02:28:46;;;;;;;18.70;10.33;;;;;;;;;;5049359;28;20187;-76
2022/12/18 02:31:14;;;;;;;19.63;9.93;;;;;;;;;;5048639;28;20227;-76
2022/12/18 02:33:40;;;;;;;19.30;11.33;;;;;;;;;;5046319;28;20190;-76
2022/12/18 02:36:05;;;;;;;17.87;10.90;;;;;;;;;;5033510;28;20327;-76
2022/12/18 02:38:31;;;;;;;17.97;10.23;;;;;;;;;;5030554;28;20261;-76
2022/12/18 02:40:56;;;;;;;18.20;11.20;;;;;;;;;;5026651;28;20189;-76
2022/12/18 02:43:21;;;;;;;19.63;12.37;;;;;;;;;;5026955;28;20181;-76
2022/12/18 02:45:54;;;;;;;18.80;10.83;;;;;;;;;;5036211;28;20188;-76
2022/12/18 02:48:23;;;;;;;15.23;9.73;;;;;;;;;;5052662;28;20178;-76
2022/12/18 02:50:57;;;;;;;17.83;10.10;;;;;;;;;;5024007;28;20180;-76
2022/12/18 02:53:22;;;;;;;15.57;9.47;;;;;;;;;;5034002;28;20178;-76
2022/12/18 02:56:06;;;;;;;16.10;8.87;;;;;;;;;;5048211;28;20179;-76
2022/12/18 02:58:44;;;;;;;15.50;10.23;;;;;;;;;;5029965;28;20189;-76
2022/12/18 03:01:15;;;;;;;15.13;9.67;;;;;;;;;;5031740;28;20239;-76
2022/12/18 03:04:00;;;;;;;13.53;8.70;;;;;;;;;;5044449;28;20174;-76
2022/12/18 03:06:32;;;;;;;16.13;8.63;;;;;;;;;;5030365;28;20255;-76
2022/12/18 03:08:59;;;;;;;15.77;9.93;;;;;;;;;;5025067;28;20201;-76
2022/12/18 03:12:22;;;;;;;20.17;11.33;;;;;;;;;;5038360;28;20268;-76
2022/12/18 03:14:13;;;;;;;16.60;8.33;;;;;;;;;;5048435;28;20251;-76
2022/12/18 03:16:39;;;;;;;16.10;9.03;;;;;;;;;;5047622;28;20225;-76
2022/12/18 03:19:14;;;;;;;15.03;9.60;;;;;;;;;;5029254;28;20221;-76
2022/12/18 03:21:45;;;;;;;16.13;9.00;;;;;;;;;;5028015;28;20251;-76
2022/12/18 03:24:11;;;;;;;17.77;9.30;;;;;;;;;;5031445;28;20181;-76
2022/12/18 03:26:37;;;;;;;19.33;9.47;;;;;;;;;;5049095;28;20170;-76
2022/12/18 03:29:07;;;;;;;20.47;10.30;;;;;;;;;;5031835;28;20288;-76
2022/12/18 03:31:37;;;;;;;16.57;10.37;;;;;;;;;;5026897;28;20174;-76
2022/12/18 03:34:05;;;;;;;13.93;9.23;;;;;;;;;;5039761;28;20238;-76
2022/12/18 03:36:30;;;;;;;15.57;8.97;;;;;;;;;;5006046;28;20187;-76
2022/12/18 03:38:55;;;;;;;13.63;9.13;;;;;;;;;;5005837;28;20190;-76
2022/12/18 03:41:38;;;;;;;19.10;11.20;;;;;;;;;;5006021;28;20202;-76
2022/12/18 03:44:05;;;;;;;16.77;9.60;;;;;;;;;;5027365;28;20182;-76
2022/12/18 03:46:38;;;;;;;20.00;10.47;;;;;;;;;;5011457;28;20175;-76
2022/12/18 03:49:10;;;;;;;16.97;9.87;;;;;;;;;;5011308;28;20182;-76
2022/12/18 03:51:35;;;;;;;16.10;9.60;;;;;;;;;;5021744;28;20188;-76
2022/12/18 03:54:02;;;;;;;14.18;8.70;;;;;;;;;;5009256;28;20186;-76
2022/12/18 03:56:32;;;;;;;15.33;10.13;;;;;;;;;;5003681;28;20190;-76
2022/12/18 03:58:58;;;;;;;14.90;9.43;;;;;;;;;;5011230;28;20187;-76
2022/12/18 04:01:28;;;;;;;17.20;10.07;;;;;;;;;;5026217;28;20206;-76
2022/12/18 04:03:54;;;;;;;14.83;9.30;;;;;;;;;;5016653;28;20254;-76
2022/12/18 04:06:19;;;;;;;16.70;9.40;;;;;;;;;;5007309;28;20182;-75
2022/12/18 04:08:45;;;;;;;14.60;9.33;;;;;;;;;;5011879;28;20171;-76
2022/12/18 04:11:10;;;;;;;16.20;9.83;;;;;;;;;;5012226;28;20384;-76
2022/12/18 04:13:36;;;;;;;19.93;10.50;;;;;;;;;;5021217;28;20163;-76
2022/12/18 04:16:02;;;;;;;16.13;9.30;;;;;;;;;;5010816;28;20178;-76
2022/12/18 04:18:27;;;;;;;21.03;12.03;;;;;;;;;;5011786;28;20227;-76
2022/12/18 04:20:52;;;;;;;17.03;10.73;;;;;;;;;;5022272;28;20191;-76
2022/12/18 04:23:17;;;;;;;15.07;9.83;;;;;;;;;;5012177;28;20210;-76
2022/12/18 04:25:42;;;;;;;15.73;11.00;;;;;;;;;;5007895;28;20278;-76
2022/12/18 04:28:08;;;;;;;15.57;10.03;;;;;;;;;;5013356;28;20183;-76
2022/12/18 04:30:33;;;;;;;14.17;9.20;;;;;;;;;;5007687;28;20266;-76
2022/12/18 04:32:58;;;;;;;18.60;10.13;;;;;;;;;;5027984;28;20190;-76
2022/12/18 04:35:23;;;;;;;12.43;9.07;;;;;;;;;;5044359;28;20255;-76
2022/12/18 04:37:49;;;;;;;16.80;9.10;;;;;;;;;;5050073;28;20182;-76
2022/12/18 04:40:14;;;;;;;15.70;10.03;;;;;;;;;;5045596;28;20206;-76
2022/12/18 04:42:40;;;;;;;19.87;10.63;;;;;;;;;;5046217;28;20265;-76
2022/12/18 04:45:05;;;;;;;18.57;11.63;;;;;;;;;;5047923;28;20174;-76
2022/12/18 04:47:31;;;;;;;14.00;9.83;;;;;;;;;;5050812;28;20163;-75
2022/12/18 04:49:56;;;;;;;17.33;10.87;;;;;;;;;;5048846;28;20178;-76
2022/12/18 04:52:21;;;;;;;17.80;11.50;;;;;;;;;;5044664;28;20178;-76
2022/12/18 04:54:46;;;;;;;13.93;9.70;;;;;;;;;;5048459;28;20203;-76
2022/12/18 04:57:12;;;;;;;14.23;9.40;;;;;;;;;;5051329;28;20174;-76
2022/12/18 04:59:37;;;;;;;15.37;9.17;;;;;;;;;;5049996;28;20170;-76
2022/12/18 05:02:02;;;;;;;16.03;10.87;;;;;;;;;;5047444;28;20615;-76
2022/12/18 05:04:27;;;;;;;15.17;9.67;;;;;;;;;;5049566;28;20213;-76
2022/12/18 05:06:52;;;;;;;16.87;10.73;;;;;;;;;;5048287;28;20173;-76
2022/12/18 05:09:18;;;;;;;18.43;11.60;;;;;;;;;;5048928;28;20248;-76
2022/12/18 05:11:43;;;;;;;16.60;9.90;;;;;;;;;;5048828;28;20185;-76
2022/12/18 05:14:08;;;;;;;20.10;10.63;;;;;;;;;;5043145;28;20178;-76
2022/12/18 05:16:33;;;;;;;16.43;10.97;;;;;;;;;;5047382;28;20182;-76
2022/12/18 05:18:59;;;;;;;16.90;11.57;;;;;;;;;;5046011;28;20237;-76
2022/12/18 05:21:24;;;;;;;19.73;11.40;;;;;;;;;;5048909;28;20296;-76
2022/12/18 05:23:49;;;;;;;14.77;8.87;;;;;;;;;;5044757;28;20213;-76
2022/12/18 05:26:15;;;;;;;16.83;10.03;;;;;;;;;;5047522;28;20278;-76
2022/12/18 05:28:41;;;;;;;14.87;9.03;;;;;;;;;;5041175;28;20232;-76
2022/12/18 05:31:06;;;;;;;19.97;11.47;;;;;;;;;;5049223;28;20178;-76
2022/12/18 05:33:32;;;;;;;16.60;10.90;;;;;;;;;;5046373;28;20171;-76
2022/12/18 05:35:59;;;;;;;16.03;10.37;;;;;;;;;;5030887;28;20174;-76
2022/12/18 05:38:25;;;;;;;20.13;11.67;;;;;;;;;;5048869;28;20179;-75
2022/12/18 05:40:50;;;;;;;15.87;11.00;;;;;;;;;;5053232;28;20200;-76
2022/12/18 05:43:16;;;;;;;17.97;10.53;;;;;;;;;;5034892;28;20194;-76
2022/12/18 05:45:41;;;;;;;16.37;10.20;;;;;;;;;;5035336;28;20165;-75
2022/12/18 05:48:07;;;;;;;13.13;8.20;;;;;;;;;;5040651;28;20261;-76
2022/12/18 05:50:36;;;;;;;16.60;10.03;;;;;;;;;;5039317;28;20382;-76
2022/12/18 05:53:02;;;;;;;16.03;9.27;;;;;;;;;;5033851;28;20341;-76
2022/12/18 05:55:27;;;;;;;21.30;11.40;;;;;;;;;;5039837;28;20607;-76
2022/12/18 05:57:52;;;;;;;19.33;10.20;;;;;;;;;;5035429;28;20224;-75
2022/12/18 06:00:17;;;;;;;15.37;9.50;;;;;;;;;;5032892;28;20182;-76
2022/12/18 06:02:46;;;;;;;20.10;10.93;;;;;;;;;;5027933;28;20244;-76
2022/12/18 06:05:11;;;;;;;15.70;9.90;;;;;;;;;;5030221;28;20193;-76
2022/12/18 06:07:36;;;;;;;16.50;10.20;;;;;;;;;;5029808;28;20175;-76
2022/12/18 06:10:01;;;;;;;18.93;10.17;;;;;;;;;;5042443;28;20284;-76
2022/12/18 06:12:26;;;;;;;14.00;7.63;;;;;;;;;;5033341;28;20212;-76
2022/12/18 06:14:52;;;;;;;14.37;9.07;;;;;;;;;;5048779;28;20182;-75
2022/12/18 06:17:17;;;;;;;17.23;10.00;;;;;;;;;;5036584;28;20201;-75
2022/12/18 06:19:42;;;;;;;15.30;8.97;;;;;;;;;;5030953;28;20197;-75
2022/12/18 06:22:07;;;;;;;17.07;9.37;;;;;;;;;;5040750;28;20198;-76
2022/12/18 06:24:32;;;;;;;16.63;10.30;;;;;;;;;;5050902;28;20167;-76
2022/12/18 06:26:58;;;;;;;18.83;10.40;;;;;;;;;;5035043;28;20189;-76
2022/12/18 06:29:23;;;;;;;16.57;9.80;;;;;;;;;;5040461;28;20181;-76
2022/12/18 06:31:48;;;;;;;17.43;11.53;;;;;;;;;;5037217;28;20269;-76
2022/12/18 06:34:13;;;;;;;18.30;10.17;;;;;;;;;;5023432;28;20238;-76
2022/12/18 06:36:38;;;;;;;18.73;9.87;;;;;;;;;;5006076;28;20178;-76
2022/12/18 06:39:04;;;;;;;18.17;11.23;;;;;;;;;;5003491;28;20275;-76
2022/12/18 06:41:29;;;;;;;17.47;8.63;;;;;;;;;;5009224;28;20210;-76
2022/12/18 06:43:54;;;;;;;13.90;7.70;;;;;;;;;;5007751;28;20269;-76
2022/12/18 06:46:19;;;;;;;19.97;11.60;;;;;;;;;;5026704;28;20213;-75
2022/12/18 06:48:49;;;;;;;16.73;10.53;;;;;;;;;;5008900;28;20297;-75
2022/12/18 06:51:21;;;;;;;17.03;10.57;;;;;;;;;;5013480;28;20187;-76
2022/12/18 06:53:47;;;;;;;23.53;13.23;;;;;;;;;;5010554;28;20202;-76
2022/12/18 06:56:12;;;;;;;20.97;12.07;;;;;;;;;;5034052;28;20217;-75
2022/12/18 06:58:38;;;;;;;17.83;9.87;;;;;;;;;;5027935;28;20175;-76
2022/12/18 07:01:04;;;;;;;18.00;9.47;;;;;;;;;;5032439;28;20241;-76
2022/12/18 07:03:29;;;;;;;20.27;11.63;;;;;;;;;;5005191;28;20225;-75
2022/12/18 07:05:54;;;;;;;19.23;11.77;;;;;;;;;;5002502;28;20183;-76
2022/12/18 07:08:20;;;;;;;24.83;13.03;;;;;;;;;;5010378;28;20178;-75
2022/12/18 07:10:45;;;;;;;24.40;11.67;;;;;;;;;;5027677;28;20174;-76
2022/12/18 07:13:10;;;;;;;19.60;11.17;;;;;;;;;;5008651;28;20182;-76
2022/12/18 07:15:35;;;;;;;17.70;9.50;;;;;;;;;;5011053;28;20186;-75
2022/12/18 07:18:01;;;;;;;29.33;19.87;;;;;;;;;;5010075;28;20202;-76
2022/12/18 07:20:26;;;;;;;23.13;13.00;;;;;;;;;;5005965;28;20171;-76
2022/12/18 07:22:51;;;;;;;18.43;11.80;;;;;;;;;;5021950;28;20213;-75
2022/12/18 07:25:16;;;;;;;8.63;5.50;;;;;;;;;;5021594;28;20639;-75
2022/12/18 07:27:41;;;;;;;19.47;10.50;;;;;;;;;;5007322;28;20329;-76
2022/12/18 07:30:07;;;;;;;19.40;11.97;;;;;;;;;;5010982;28;20178;-76
2022/12/18 07:32:32;;;;;;;17.60;9.57;;;;;;;;;;5010321;28;20262;-76
2022/12/18 07:34:57;;;;;;;26.37;15.27;;;;;;;;;;5034032;28;20232;-76
2022/12/18 07:37:23;;;;;;;21.03;11.13;;;;;;;;;;5045449;28;20182;-76
2022/12/18 07:39:48;;;;;;;19.40;10.93;;;;;;;;;;5042914;28;20221;-76
2022/12/18 07:42:31;;;;;;;22.33;12.30;;;;;;;;;;5044891;28;20237;-76
2022/12/18 07:44:57;;;;;;;21.23;11.13;;;;;;;;;;5047242;28;20264;-76
2022/12/18 07:47:22;;;;;;;14.33;8.37;;;;;;;;;;5046680;28;20238;-76
2022/12/18 07:49:48;;;;;;;24.47;12.30;;;;;;;;;;5046512;28;20284;-75
2022/12/18 07:52:13;;;;;;;26.50;14.87;;;;;;;;;;5046248;28;20177;-75
2022/12/18 07:54:38;;;;;;;26.23;14.17;;;;;;;;;;5048402;28;20224;-75
2022/12/18 07:57:04;;;;;;;26.67;13.37;;;;;;;;;;5047595;28;20225;-75
2022/12/18 07:59:29;;;;;;;26.93;15.27;;;;;;;;;;5048255;28;20176;-75
2022/12/18 08:01:54;;;;;;;25.33;12.97;;;;;;;;;;5049775;28;20206;-75
2022/12/18 08:04:19;;;;;;;22.17;10.27;;;;;;;;;;5049384;28;20241;-76
2022/12/18 08:06:45;;;;;;;25.60;12.47;;;;;;;;;;5049862;28;20208;-75
2022/12/18 08:09:10;;;;;;;25.33;13.00;;;;;;;;;;5048070;28;21380;-75
2022/12/18 08:11:35;;;;;;;26.77;13.17;;;;;;;;;;5050847;28;20351;-75
2022/12/18 08:14:00;;;;;;;23.13;13.47;;;;;;;;;;5048841;28;20220;-75
2022/12/18 08:16:26;;;;;;;19.97;11.13;;;;;;;;;;5044378;28;20237;-75
2022/12/18 08:18:52;;;;;;;28.97;13.00;;;;;;;;;;5050328;28;20251;-76
2022/12/18 08:21:22;;;;;;;25.90;12.10;;;;;;;;;;5045703;28;20200;-75
2022/12/18 08:23:48;;;;;;;32.70;16.30;;;;;;;;;;5053092;28;20182;-76
2022/12/18 08:26:14;;;;;;;27.13;14.20;;;;;;;;;;5046487;28;20273;-75
2022/12/18 08:28:39;;;;;;;32.83;15.27;;;;;;;;;;5050948;28;20210;-75
2022/12/18 08:31:05;;;;;;;22.83;11.20;;;;;;;;;;5048471;28;20245;-75
2022/12/18 08:33:30;;;;;;;26.90;13.67;;;;;;;;;;5042447;28;20216;-75
2022/12/18 08:35:55;;;;;;;20.13;11.63;;;;;;;;;;5005788;28;20242;-75
2022/12/18 08:38:20;;;;;;;25.60;13.33;;;;;;;;;;5013566;28;20252;-75
2022/12/18 08:40:46;;;;;;;18.50;10.53;;;;;;;;;;5030651;28;20175;-75
2022/12/18 08:45:55;;;;;;;26.03;13.80;;;;;;;;;;5028985;28;20188;-76
2022/12/18 08:48:20;;;;;;;35.93;13.60;;;;;;;;;;5016844;28;20273;-75
2022/12/18 08:50:55;;;;;;;27.17;14.60;;;;;;;;;;5016295;28;20285;-76
2022/12/18 08:53:20;;;;;;;20.07;9.97;;;;;;;;;;5027002;28;20265;-75
2022/12/18 08:55:46;;;;;;;23.80;12.80;;;;;;;;;;5014431;28;20262;-75
2022/12/18 08:58:11;;;;;;;20.60;9.83;;;;;;;;;;5013337;28;20190;-76
2022/12/18 09:00:36;;;;;;;27.53;13.40;;;;;;;;;;5037246;28;20190;-76
2022/12/18 09:03:01;;;;;;;37.63;16.43;;;;;;;;;;5016837;28;20337;-75
2022/12/18 09:05:27;;;;;;;26.23;12.40;;;;;;;;;;5011592;28;20179;-76
2022/12/18 09:07:52;;;;;;;27.60;14.73;;;;;;;;;;5026735;28;20194;-75
2022/12/18 09:10:17;;;;;;;31.93;15.43;;;;;;;;;;5006921;28;20299;-75
2022/12/18 09:12:42;;;;;;;27.53;16.17;;;;;;;;;;5008561;28;20181;-75
2022/12/18 09:15:07;;;;;;;35.03;16.70;;;;;;;;;;5014199;28;20233;-75
2022/12/18 09:17:33;;;;;;;33.23;19.13;;;;;;;;;;5021432;28;20195;-76
2022/12/18 09:19:58;;;;;;;34.97;16.93;;;;;;;;;;5029679;28;20190;-76
2022/12/18 09:22:23;;;;;;;39.07;18.00;;;;;;;;;;5008440;28;20210;-75
2022/12/18 09:24:48;;;;;;;35.17;20.03;;;;;;;;;;5016093;28;20261;-75
2022/12/18 09:27:14;;;;;;;36.40;19.20;;;;;;;;;;5018484;28;20181;-76
2022/12/18 09:29:39;;;;;;;33.63;16.67;;;;;;;;;;5030600;28;20175;-76
2022/12/18 09:32:04;;;;;;;35.27;16.50;;;;;;;;;;5007778;28;20189;-76
2022/12/18 09:34:29;;;;;;;34.20;17.93;;;;;;;;;;5027854;28;20237;-75
2022/12/18 09:36:55;;;;;;;30.80;18.07;;;;;;;;;;5047765;28;20178;-76
2022/12/18 09:39:20;;;;;;;33.63;16.97;;;;;;;;;;5046769;28;20323;-76
2022/12/18 09:41:53;;;;;;;37.43;18.97;;;;;;;;;;5040804;28;20210;-75
2022/12/18 09:44:23;;;;;;;40.77;19.93;;;;;;;;;;5039789;28;20186;-76
2022/12/18 09:47:04;;;;;;;43.80;20.00;;;;;;;;;;5051806;28;20185;-76
2022/12/18 09:49:31;;;;;;;33.70;16.63;;;;;;;;;;5047834;28;20178;-76
2022/12/18 09:52:07;;;;;;;37.87;20.10;;;;;;;;;;5055725;28;20269;-75
2022/12/18 09:54:35;;;;;;;34.40;18.73;;;;;;;;;;5051329;28;20182;-75
2022/12/18 09:57:00;;;;;;;41.73;20.37;;;;;;;;;;5051283;28;20189;-75
2022/12/18 09:59:30;;;;;;;37.27;19.13;;;;;;;;;;5039578;28;20185;-76
2022/12/18 10:01:56;;;;;;;41.80;22.73;;;;;;;;;;5048560;28;20259;-76
2022/12/18 10:04:21;;;;;;;36.07;19.20;;;;;;;;;;5048579;28;20189;-75
2022/12/18 10:06:53;;;;;;;38.77;19.90;;;;;;;;;;5044636;28;20171;-76
2022/12/18 10:09:31;;;;;;;38.43;19.93;;;;;;;;;;5049565;28;20185;-76
2022/12/18 10:12:03;;;;;;;39.33;20.03;;;;;;;;;;5042390;28;20459;-76
2022/12/18 10:14:51;;;;;;;40.70;20.33;;;;;;;;;;5043512;28;20217;-75
2022/12/18 10:17:17;;;;;;;40.40;19.27;;;;;;;;;;5050236;28;20271;-76
2022/12/18 10:19:49;;;;;;;41.43;19.53;;;;;;;;;;5044049;28;20178;-76
2022/12/18 10:22:33;;;;;;;43.07;21.50;;;;;;;;;;5040657;28;20265;-76
2022/12/18 10:25:03;;;;;;;41.17;20.13;;;;;;;;;;5042060;28;20170;-76
2022/12/18 10:27:29;;;;;;;40.00;20.63;;;;;;;;;;5041623;28;20253;-76
2022/12/18 10:29:54;;;;;;;40.03;20.13;;;;;;;;;;5047104;28;20231;-76
2022/12/18 10:32:24;;;;;;;37.13;17.27;;;;;;;;;;5047145;28;20185;-76
2022/12/18 10:34:51;;;;;;;41.67;20.33;;;;;;;;;;5046223;28;20244;-76
2022/12/18 10:37:18;;;;;;;39.03;18.57;;;;;;;;;;5040076;28;20178;-76
2022/12/18 10:39:43;;;;;;;41.53;19.47;;;;;;;;;;5045536;28;20174;-76
2022/12/18 10:42:10;;;;;;;41.77;20.57;;;;;;;;;;5043158;28;20212;-75
2022/12/18 10:44:35;;;;;;;40.10;17.90;;;;;;;;;;5044056;28;20174;-76
2022/12/18 10:47:05;;;;;;;43.50;20.43;;;;;;;;;;5047869;28;20200;-76
2022/12/18 10:49:31;;;;;;;51.00;24.50;;;;;;;;;;5043766;28;20174;-75
2022/12/18 10:52:17;;;;;;;41.77;23.17;;;;;;;;;;5042822;28;20190;-75
2022/12/18 10:54:54;;;;;;;43.00;22.27;;;;;;;;;;5045548;28;20181;-76
2022/12/18 10:57:25;;;;;;;45.90;22.40;;;;;;;;;;5058549;28;20181;-76
2022/12/18 10:59:52;;;;;;;49.13;24.30;;;;;;;;;;5042744;28;20173;-76
2022/12/18 11:02:32;;;;;;;41.80;20.97;;;;;;;;;;5044172;28;20202;-75
2022/12/18 11:04:58;;;;;;;45.93;23.23;;;;;;;;;;5045441;28;20188;-76
2022/12/18 11:07:23;;;;;;;43.90;19.67;;;;;;;;;;5049816;28;20182;-76
2022/12/18 11:09:59;;;;;;;40.10;21.67;;;;;;;;;;5043140;28;20174;-76
2022/12/18 11:12:24;;;;;;;45.87;22.20;;;;;;;;;;5042011;28;20185;-76
2022/12/18 11:14:51;;;;;;;44.23;22.07;;;;;;;;;;5045713;28;20182;-76
2022/12/18 11:17:35;;;;;;;47.17;21.67;;;;;;;;;;5047106;28;20229;-76
2022/12/18 11:20:06;;;;;;;49.30;23.87;;;;;;;;;;5062208;28;20194;-76
2022/12/18 11:22:33;;;;;;;58.87;25.23;;;;;;;;;;5049634;28;20277;-76
2022/12/18 11:25:03;;;;;;;53.13;23.17;;;;;;;;;;5041959;28;20185;-76
2022/12/18 11:27:29;;;;;;;52.80;22.80;;;;;;;;;;5041752;28;20197;-76
2022/12/18 11:30:07;;;;;;;47.57;23.30;;;;;;;;;;5044954;28;20187;-76
2022/12/18 11:32:37;;;;;;;47.63;25.90;;;;;;;;;;5040177;28;20182;-76
2022/12/18 11:35:08;;;;;;;50.40;22.07;;;;;;;;;;5028934;28;20261;-76
2022/12/18 11:37:34;;;;;;;52.40;24.57;;;;;;;;;;5011752;28;20179;-76
2022/12/18 11:40:02;;;;;;;30.37;15.70;;;;;;;;;;5011207;28;20174;-76
2022/12/18 11:42:34;;;;;;;38.03;19.30;;;;;;;;;;4998764;28;20203;-76
2022/12/18 11:45:03;;;;;;;46.53;21.73;;;;;;;;;;5027735;28;20276;-76
2022/12/18 11:47:37;;;;;;;48.33;22.90;;;;;;;;;;5024206;28;20181;-76
2022/12/18 11:50:03;;;;;;;48.27;22.40;;;;;;;;;;5008852;28;20409;-76
2022/12/18 11:52:28;;;;;;;48.17;22.07;;;;;;;;;;5009448;28;20175;-76
2022/12/18 11:54:56;;;;;;;45.72;21.67;;;;;;;;;;5011105;28;20185;-76
2022/12/18 11:57:35;;;;;;;45.47;21.17;;;;;;;;;;5033499;28;20286;-76
2022/12/18 12:00:30;;;;;;;42.93;21.63;;;;;;;;;;5029001;28;20216;-76
2022/12/18 12:03:01;;;;;;;45.97;22.53;;;;;;;;;;4998795;28;20218;-76
2022/12/18 12:05:45;;;;;;;43.23;21.63;;;;;;;;;;5011533;28;20294;-76
2022/12/18 12:08:29;;;;;;;45.60;22.47;;;;;;;;;;5001893;28;20178;-76
2022/12/18 12:10:57;;;;;;;43.40;21.43;;;;;;;;;;5007486;28;20281;-76
2022/12/18 12:13:22;;;;;;;42.30;22.90;;;;;;;;;;5006654;28;20202;-75
2022/12/18 12:15:52;;;;;;;44.47;21.50;;;;;;;;;;5004591;28;20260;-76
2022/12/18 12:18:24;;;;;;;38.90;20.33;;;;;;;;;;5009290;28;20203;-76
2022/12/18 12:21:06;;;;;;;44.97;23.03;;;;;;;;;;5003527;28;20254;-75
2022/12/18 12:23:43;;;;;;;44.67;21.80;;;;;;;;;;5009087;28;20213;-76
2022/12/18 12:26:11;;;;;;;46.60;21.73;;;;;;;;;;5007427;28;20186;-76
2022/12/18 12:28:45;;;;;;;44.57;20.83;;;;;;;;;;5008997;28;20174;-75
2022/12/18 12:31:39;;;;;;;38.67;19.63;;;;;;;;;;5027491;28;20194;-76
2022/12/18 12:34:04;;;;;;;46.80;21.90;;;;;;;;;;5008843;28;20316;-76
2022/12/18 12:36:38;;;;;;;44.23;22.33;;;;;;;;;;5050561;28;20265;-76
2022/12/18 12:39:08;;;;;;;40.10;18.30;;;;;;;;;;5048694;28;20184;-76
2022/12/18 12:44:25;;;;;;;42.87;21.00;;;;;;;;;;5052227;28;20188;-76
2022/12/18 12:46:52;;;;;;;43.47;21.93;;;;;;;;;;5047705;28;20197;-76
2022/12/18 12:49:18;;;;;;;47.27;23.03;;;;;;;;;;5040476;28;20174;-76
2022/12/18 12:51:47;;;;;;;40.87;22.47;;;;;;;;;;5049067;28;20193;-76
2022/12/18 12:54:17;;;;;;;38.80;21.37;;;;;;;;;;5044571;28;20191;-76
2022/12/18 12:56:46;;;;;;;42.30;22.90;;;;;;;;;;5048454;28;20193;-76
2022/12/18 12:59:36;;;;;;;43.67;21.77;;;;;;;;;;5042620;28;20205;-76
2022/12/18 13:02:20;;;;;;;45.33;21.80;;;;;;;;;;5049264;28;20210;-76
2022/12/18 13:04:49;;;;;;;48.90;23.80;;;;;;;;;;5057632;28;20170;-76
2022/12/18 13:07:34;;;;;;;50.70;24.93;;;;;;;;;;5047648;28;20186;-76
2022/12/18 13:10:13;;;;;;;45.20;21.73;;;;;;;;;;5036213;28;20236;-76
2022/12/18 13:12:55;;;;;;;47.73;23.83;;;;;;;;;;5043634;28;20182;-76
2022/12/18 13:15:22;;;;;;;46.60;24.10;;;;;;;;;;5046085;28;20241;-76
2022/12/18 13:17:47;;;;;;;44.73;23.17;;;;;;;;;;5049976;28;20229;-76
2022/12/18 13:20:16;;;;;;;49.10;22.83;;;;;;;;;;5042611;28;20220;-76
2022/12/18 13:22:45;;;;;;;52.00;24.67;;;;;;;;;;5049874;28;20201;-76
2022/12/18 13:25:31;;;;;;;40.83;21.50;;;;;;;;;;5044074;28;20174;-76
2022/12/18 13:28:08;;;;;;;48.77;23.07;;;;;;;;;;5050757;28;20581;-76
2022/12/18 13:30:33;;;;;;;44.10;22.10;;;;;;;;;;5046426;28;20181;-76
2022/12/18 13:33:14;;;;;;;48.40;24.50;;;;;;;;;;5043092;28;20177;-76
2022/12/18 13:35:41;;;;;;;50.40;25.53;;;;;;;;;;5045460;28;20222;-76
2022/12/18 13:38:20;;;;;;;49.40;24.10;;;;;;;;;;5053317;28;20204;-76
2022/12/18 13:40:46;;;;;;;50.27;24.60;;;;;;;;;;5052124;28;20189;-76
2022/12/18 13:43:34;;;;;;;51.00;25.60;;;;;;;;;;5051214;28;20206;-76
2022/12/18 13:46:04;;;;;;;43.57;24.00;;;;;;;;;;5045129;28;20190;-76
2022/12/18 13:48:32;;;;;;;47.03;22.17;;;;;;;;;;5043765;28;20206;-76
2022/12/18 13:51:03;;;;;;;42.53;22.13;;;;;;;;;;5049939;28;20249;-76
2022/12/18 13:53:47;;;;;;;43.90;23.63;;;;;;;;;;5055445;28;20246;-76
2022/12/18 13:56:16;;;;;;;47.13;24.07;;;;;;;;;;5049829;28;20188;-76
2022/12/18 13:58:41;;;;;;;48.33;23.27;;;;;;;;;;5047073;28;20186;-76
2022/12/18 14:01:21;;;;;;;48.77;24.13;;;;;;;;;;5048945;28;20205;-76
2022/12/18 14:03:46;;;;;;;45.00;21.67;;;;;;;;;;5043870;28;20206;-76
2022/12/18 14:06:12;;;;;;;49.60;24.20;;;;;;;;;;5050169;28;20174;-76
2022/12/18 14:08:41;;;;;;;46.87;25.10;;;;;;;;;;5054634;28;20173;-76
2022/12/18 14:11:06;;;;;;;51.03;26.40;;;;;;;;;;5046580;28;20245;-76
2022/12/18 14:13:35;;;;;;;47.90;25.47;;;;;;;;;;5050242;28;20256;-76
2022/12/18 14:16:01;;;;;;;51.93;24.47;;;;;;;;;;5049382;28;20182;-76
2022/12/18 14:18:31;;;;;;;56.80;26.37;;;;;;;;;;5052281;28;20287;-76
2022/12/18 14:20:57;;;;;;;51.33;24.93;;;;;;;;;;5048542;28;20182;-76
2022/12/18 14:23:28;;;;;;;51.60;24.73;;;;;;;;;;5045144;28;20198;-76
2022/12/18 14:25:54;;;;;;;52.77;24.13;;;;;;;;;;5042465;28;20179;-76
2022/12/18 14:28:21;;;;;;;46.70;23.53;;;;;;;;;;5042781;28;20181;-76
2022/12/18 14:30:46;;;;;;;48.97;25.27;;;;;;;;;;5039476;28;20196;-76